Kansas City, Missouri
Current Conditions -  °F | °C
As of 11:54 AM on Sunday 21 Dec 2014 (Local Time) from KMKC Reporting Station
Overcast Overcast  
Wind Chill:   Ceiling: 1600
Heat Index:   Visibility: 10mi
Dew Point:   Wind: 13mph
Humidity: 79%   Direction: 180°S
Pressure: 29.96"   Gusts: NA
Location:  39.1°N, 94.58°W
Report Text: KMKC 211754Z 18011KT 10SM BKN016 OVC032 07/03 A2996 RMK AO2 SLP147 T00670033 10067 20039 58020
Loading
Personal Weather Stations






























Interactive Weather Map New forecast layout! Learn more

10-Day Weather Forecast

Advertisements
Track Severe Weather on mobile